Red Wings SU95 at Belgorod on Jan 10th 2022, overran runway on landing

Last Update: January 10, 2022 / 09:02:46 GMT/Zulu time

Bookmark this article
Incident Facts

Date of incident
Jan 10, 2022

Classification
Incident

Airline
Red Wings

Flight number
WZ-387

Destination
Belgorod, Russia

Aircraft Registration
RA-89122

ICAO Type Designator
SU95

Airport ICAO Code
UUOB

A Red Wings Sukhoi Superjet 100-95, registration RA-89122 performing flight WZ-387 from Moscow Domodedovo to Belgorod (Russia), landed on Belgorod's runway 29 at 10:42L (07:42Z) but overran the end of the runway by about 110 meters/350 feet before coming to a stop past the end of the paved runway end safety area with all gear on soft ground. There were no injuries, the aircraft sustained minor if any damage.

Metars:
UUOB 100830Z 18002MPS 1000 0750W R29/1000N +FZRA FZFG OVC002 M00/M00 Q1010 R29/850238 NOSIG RMK QBB060=
UUOB 100800Z 15003MPS 0900 0300E R29/0375N +FZRA FZFG VV003 M00/M00 Q1010 R29/850238 NOSIG RMK QBB100=
UUOB 100730Z 16002MPS 0800 0550E R29/0600N +FZRA FZFG VV002 M00/M00 Q1010 R29/850238 NOSIG RMK QBB080=
UUOB 100700Z 15003MPS 0200 0150E R29/0225N FZFG VV002 M00/M00 Q1010 R29/850235 NOSIG RMK QBB070=
UUOB 100630Z 16004MPS 0200 R29/0250N +FZDZ FZFG VV002 M00/M00 Q1010 R29/850235 NOSIG RMK QBB060=
UUOB 100600Z 15004MPS 0250 R29/0300N FZFG VV002 M00/M00 Q1009 R29/850235 NOSIG RMK QBB060=
UUOB 100530Z 15004MPS 0650 0500W R29/1000D FZFG VV002 M00/M00 Q1009 R29/850235 NOSIG RMK QBB080=
UUOB 100500Z 15003MPS 1600 0900E R29/1300N +SN FZFG OVC003 M00/M00 Q1009 R29/590235 NOSIG RMK QBB110=
UUOB 100430Z 15004MPS 0800 0750W R29/P2000N +SN FZFG VV003 M00/M00 Q1009 R29/590235 NOSIG RMK QBB090=
UUOB 100400Z 15003MPS 0800 0700W R29/2000U +SN FZFG VV002 M00/M00 Q1009 R29/390235 NOSIG RMK QBB070=
UUOB 100330Z 16004MPS 0800 0600W R29/2000D +SN FZFG VV002 M00/M00 Q1009 R29/390235 NOSIG RMK QBB080=
UUOB 100300Z 15003MPS 1000 0800E R29/P2000D +SN FZFG OVC003 M00/M00 Q1009 R29/390231 NOSIG RMK QBB110=
UUOB 100230Z 15003MPS 1300 1200E R29/P2000D FZDZ BR OVC003 M00/M01 Q1009 R29/390231 NOSIG RMK QBB100=
Aircraft Registration Data
Registration mark
RA-89122
Country of Registration
Russia
Date of Registration
Phc gfhhAhlppknin Subscribe to unlock
Certification Basis
Manufacturer
Aircraft Model / Type
RRJ-95B-100
ICAO Aircraft Type
SU95
Serial Number
Engine Count
Incident Facts

Date of incident
Jan 10, 2022

Classification
Incident

Airline
Red Wings

Flight number
WZ-387

Destination
Belgorod, Russia

Aircraft Registration
RA-89122

ICAO Type Designator
SU95

Airport ICAO Code
UUOB

This article is published under license from Avherald.com. © of text by Avherald.com.
Article source

You can read 2 more free articles without a subscription.

Subscribe now and continue reading without any limits!

Are you a subscriber? Login
Subscribe

Read unlimited articles and receive our daily update briefing. Gain better insights into what is happening in commercial aviation safety.

Free newsletter

Want to know more and stay ahead? Get our free weekly newsletter and join 5461 existing subscribers.

By subscribing, you accept our terms and conditions and confirm that you've read our privacy policy.

Send tip

Support AeroInside by sending a small tip amount.

Related articles

Newest articles

Subscribe today

Are you researching aviation incidents? Get access to AeroInside Insights, unlimited read access and receive the daily newsletter.

Pick your plan and subscribe

Partner

Blockaviation logo

A new way to document and demonstrate airworthiness compliance and aircraft value. Find out more.

Virtual Speech logo

ELITE Simulation Solutions is a leading global provider of Flight Simulation Training Devices, IFR training software as well as flight controls and related services. Find out more.

Get updates

Never miss an article from AeroInside. Subscribe to our free weekly newsletter and join 5461 existing subscribers.

By subscribing, you accept our terms and conditions and that you've read our privacy policy.

AeroInside Blog
Popular aircraft
Airbus A320
Boeing 737-800
Boeing 737-800 MAX
Popular airlines
American Airlines
United
Delta
Air Canada
Lufthansa
British Airways